createdAt,value
2022-09-15T00:00:13.667Z,99358.25
2022-09-15T00:02:42.795Z,99402.84
2022-09-15T00:05:12.050Z,99402.94
2022-09-15T00:07:41.089Z,99404.81
2022-09-15T00:10:11.364Z,99414.69
2022-09-15T00:12:40.486Z,99408.59
2022-09-15T00:15:17.033Z,99407.81
2022-09-15T00:17:53.823Z,99374.72
2022-09-15T00:20:23.825Z,99411.75
2022-09-15T00:22:52.844Z,99418.09
2022-09-15T00:25:21.751Z,99417.28
2022-09-15T00:27:50.813Z,99420.13
2022-09-15T00:30:21.421Z,99425.53
2022-09-15T00:32:50.571Z,99430.94
2022-09-15T00:35:19.642Z,99428.28
2022-09-15T00:37:48.543Z,99431.00
2022-09-15T00:40:17.650Z,99424.94
2022-09-15T00:42:46.802Z,99427.66
2022-09-15T00:45:18.602Z,99428.59
2022-09-15T00:47:49.222Z,99426.00
2022-09-15T00:50:21.945Z,99426.16
2022-09-15T00:53:02.399Z,99435.09
2022-09-15T00:55:35.187Z,99428.22
2022-09-15T00:58:08.127Z,99436.34
2022-09-15T01:00:37.779Z,99441.06
2022-09-15T01:03:08.331Z,99442.25
2022-09-15T01:05:44.020Z,99234.44
2022-09-15T01:08:19.130Z,99438.25
2022-09-15T01:10:48.122Z,99437.47
2022-09-15T01:13:17.190Z,99436.59
2022-09-15T01:15:58.616Z,99431.50
2022-09-15T01:18:41.226Z,99402.44
2022-09-15T01:21:29.263Z,99441.84
2022-09-15T01:24:40.750Z,99447.28
2022-09-15T01:27:41.975Z,99446.28
2022-09-15T01:30:15.490Z,99441.91
2022-09-15T01:33:15.937Z,99442.13
2022-09-15T01:36:07.256Z,99445.81
2022-09-15T01:38:51.018Z,99453.94
2022-09-15T01:41:26.034Z,99445.22
2022-09-15T01:44:05.679Z,99458.63
2022-09-15T01:46:42.973Z,99441.97
2022-09-15T01:49:14.931Z,99435.84
2022-09-15T01:51:47.788Z,99440.41
2022-09-15T01:54:20.918Z,99438.97
2022-09-15T01:56:51.855Z,99440.09
2022-09-15T01:59:21.666Z,99435.84
2022-09-15T02:02:02.995Z,99447.72
2022-09-15T02:04:50.848Z,99446.22
2022-09-15T02:07:32.039Z,99446.44
2022-09-15T02:10:11.660Z,99443.28
2022-09-15T02:12:50.684Z,99446.31
2022-09-15T02:15:29.184Z,99438.41
2022-09-15T02:17:59.747Z,99437.66
2022-09-15T02:20:36.154Z,99442.34
2022-09-15T02:23:11.044Z,99440.50
2022-09-15T02:25:45.381Z,99440.66
2022-09-15T02:28:16.351Z,99443.38
2022-09-15T02:30:47.486Z,99449.81
2022-09-15T02:33:23.821Z,99450.03
2022-09-15T02:35:54.137Z,99443.06
2022-09-15T02:38:23.841Z,99439.56
2022-09-15T02:40:53.012Z,99443.25
2022-09-15T02:43:23.473Z,99437.94
2022-09-15T02:45:52.787Z,99441.56
2022-09-15T02:48:23.758Z,99444.28
2022-09-15T02:50:55.632Z,99442.44
2022-09-15T02:53:24.545Z,99445.91
2022-09-15T02:55:53.426Z,99439.00
2022-09-15T02:58:22.315Z,99427.59
2022-09-15T03:00:52.150Z,99429.59
2022-09-15T03:03:22.438Z,99431.69
2022-09-15T03:05:51.330Z,99431.94
2022-09-15T03:08:21.405Z,99428.53
2022-09-15T03:10:50.481Z,99424.28
2022-09-15T03:13:19.553Z,99422.81
2022-09-15T03:15:48.405Z,99429.41
2022-09-15T03:18:17.269Z,99423.31
2022-09-15T03:20:47.622Z,99427.97
2022-09-15T03:23:16.545Z,99427.69
2022-09-15T03:25:47.773Z,99427.88
2022-09-15T03:28:16.763Z,99435.97
2022-09-15T03:30:46.927Z,99440.28
2022-09-15T03:33:15.907Z,99443.06
2022-09-15T03:35:47.910Z,99445.03
2022-09-15T03:38:17.423Z,99446.06
2022-09-15T03:40:56.824Z,99442.59
2022-09-15T03:43:26.197Z,99442.59
2022-09-15T03:45:56.196Z,99437.34
2022-09-15T03:48:25.782Z,99447.03
2022-09-15T03:50:56.115Z,99438.69
2022-09-15T03:53:24.941Z,99449.56
2022-09-15T03:55:54.198Z,99446.97
2022-09-15T03:58:23.187Z,99449.63
2022-09-15T04:00:52.565Z,99447.84
2022-09-15T04:03:21.643Z,99450.53
2022-09-15T04:05:50.473Z,99451.59
2022-09-15T04:08:20.749Z,99451.59
2022-09-15T04:10:49.753Z,99453.31
2022-09-15T04:13:32.019Z,99454.19
2022-09-15T04:17:01.824Z,99453.06
2022-09-15T04:20:21.965Z,99458.69
2022-09-15T04:23:38.114Z,99461.50
2022-09-15T04:27:10.431Z,99460.91
2022-09-15T04:30:00.440Z,99454.97
2022-09-15T04:32:31.180Z,99454.56
2022-09-15T04:35:00.054Z,99457.72
2022-09-15T04:37:29.283Z,99452.09
2022-09-15T04:39:59.853Z,99451.06
2022-09-15T04:42:36.140Z,99458.78
2022-09-15T04:45:10.096Z,99463.09
2022-09-15T04:47:39.234Z,99458.50
2022-09-15T04:50:08.827Z,99467.34
2022-09-15T04:52:40.449Z,99459.44
2022-09-15T04:55:14.510Z,99469.13
2022-09-15T04:57:43.420Z,99472.72
2022-09-15T05:00:13.849Z,99464.94
2022-09-15T05:02:42.830Z,99474.88
2022-09-15T05:05:11.751Z,99467.91
2022-09-15T05:07:41.019Z,99469.56
2022-09-15T05:10:13.330Z,99461.38
2022-09-15T05:12:42.353Z,99467.16
2022-09-15T05:15:12.586Z,99411.91
2022-09-15T05:17:41.819Z,99464.81
2022-09-15T05:20:10.999Z,99468.97
2022-09-15T05:22:41.931Z,99469.69
2022-09-15T05:25:13.249Z,99477.22
2022-09-15T05:27:42.171Z,99473.34
2022-09-15T05:33:01.316Z,99472.59
2022-09-15T05:35:31.799Z,99480.09
2022-09-15T05:38:01.007Z,99477.94
2022-09-15T05:40:31.425Z,99470.59
2022-09-15T05:43:00.456Z,99473.00
2022-09-15T05:45:29.274Z,99474.03
2022-09-15T05:48:01.301Z,99480.53
2022-09-15T05:50:32.970Z,99479.13
2022-09-15T05:53:08.648Z,99475.13
2022-09-15T05:55:42.708Z,99475.44
2022-09-15T05:58:11.758Z,99478.69
2022-09-15T06:00:41.590Z,99483.88
2022-09-15T06:03:15.263Z,99479.94
2022-09-15T06:05:44.474Z,99478.47
2022-09-15T06:08:13.825Z,99471.44
2022-09-15T06:10:45.469Z,99471.63
2022-09-15T06:13:15.140Z,99465.28
2022-09-15T06:15:44.250Z,99468.22
2022-09-15T06:18:13.936Z,99473.78
2022-09-15T06:20:42.971Z,99477.50
2022-09-15T06:23:12.005Z,99471.72
2022-09-15T06:25:41.342Z,99474.81
2022-09-15T06:28:11.975Z,99471.81
2022-09-15T06:30:41.438Z,99479.47
2022-09-15T06:33:10.376Z,99481.00
2022-09-15T06:35:39.122Z,99397.78
2022-09-15T06:38:12.783Z,99495.00
2022-09-15T06:40:41.773Z,99486.50
2022-09-15T06:43:12.647Z,99501.28
2022-09-15T06:45:43.865Z,99497.50
2022-09-15T06:48:24.570Z,99494.91
2022-09-15T06:50:57.310Z,99494.75
2022-09-15T06:53:26.756Z,99506.44
2022-09-15T06:55:55.686Z,99504.34
2022-09-15T06:58:35.906Z,99501.09
2022-09-15T07:01:10.147Z,99503.25
2022-09-15T07:03:40.696Z,99510.28
2022-09-15T07:06:12.652Z,99503.16
2022-09-15T07:08:49.913Z,99500.78
2022-09-15T07:11:20.945Z,99500.25
2022-09-15T07:13:55.085Z,99502.22
2022-09-15T07:16:32.403Z,99495.56
2022-09-15T07:19:03.649Z,99504.00
2022-09-15T07:21:38.744Z,99501.47
2022-09-15T07:24:09.155Z,99503.56
2022-09-15T07:26:43.019Z,99509.22
2022-09-15T07:29:13.342Z,99509.69
2022-09-15T07:31:42.341Z,99502.78
2022-09-15T07:34:11.333Z,99507.03
2022-09-15T07:36:40.275Z,99516.75
2022-09-15T07:39:09.062Z,99515.66
2022-09-15T07:41:37.890Z,99523.31
2022-09-15T07:44:09.371Z,99522.84
2022-09-15T07:46:39.847Z,99517.53
2022-09-15T07:49:09.117Z,99528.47
2022-09-15T07:51:39.946Z,99525.06
2022-09-15T07:54:09.147Z,99521.53
2022-09-15T07:56:53.894Z,99523.78
2022-09-15T07:59:22.786Z,99520.16
2022-09-15T08:01:53.105Z,99526.31
2022-09-15T08:04:23.712Z,99516.84
2022-09-15T08:06:52.865Z,99527.41
2022-09-15T08:09:21.959Z,99531.69
2022-09-15T08:11:50.847Z,99534.69
2022-09-15T08:14:19.869Z,99536.13
2022-09-15T08:16:48.816Z,99538.50
2022-09-15T08:19:20.820Z,99538.00
2022-09-15T08:21:49.637Z,99537.00
2022-09-15T08:24:18.482Z,99547.50
2022-09-15T08:26:47.849Z,99539.56
2022-09-15T08:29:17.252Z,99544.25
2022-09-15T08:31:49.217Z,99531.06
2022-09-15T08:34:21.595Z,99534.53
2022-09-15T08:36:50.520Z,99545.56
2022-09-15T08:39:19.460Z,99538.75
2022-09-15T08:41:53.558Z,99348.97
2022-09-15T08:44:37.523Z,99544.16
2022-09-15T08:47:14.332Z,99478.88
2022-09-15T08:49:57.002Z,99540.81
2022-09-15T08:52:34.704Z,99510.94
2022-09-15T08:55:13.755Z,99431.78
2022-09-15T08:57:42.874Z,99551.38
2022-09-15T09:00:17.591Z,99521.63
2022-09-15T09:03:12.094Z,99531.19
2022-09-15T09:05:53.744Z,99368.22
2022-09-15T09:09:01.858Z,99523.06
2022-09-15T09:11:47.134Z,99498.56
2022-09-15T09:14:32.283Z,99536.53
2022-09-15T09:17:31.932Z,99536.94
2022-09-15T09:20:37.937Z,99516.41
2022-09-15T09:23:15.869Z,99499.06
2022-09-15T09:25:45.760Z,99536.56
2022-09-15T09:28:30.565Z,99472.69
2022-09-15T09:31:08.336Z,99538.59
2022-09-15T09:33:47.950Z,99538.03
2022-09-15T09:36:17.393Z,99538.84
2022-09-15T09:38:50.342Z,99502.81
2022-09-15T09:41:25.979Z,99547.03
2022-09-15T09:43:57.678Z,99537.75
2022-09-15T09:46:29.070Z,99544.59
2022-09-15T09:49:05.900Z,99532.78
2022-09-15T09:51:40.907Z,99545.13
2022-09-15T09:54:20.659Z,99534.97
2022-09-15T09:56:50.432Z,99533.75
2022-09-15T09:59:39.857Z,99533.88
2022-09-15T10:02:20.666Z,99527.44
2022-09-15T10:04:51.117Z,99521.69
2022-09-15T10:07:25.907Z,99529.50
2022-09-15T10:10:00.925Z,99522.78
2022-09-15T10:12:34.173Z,99523.50
2022-09-15T10:15:08.120Z,99521.13
2022-09-15T10:17:45.107Z,99404.41
2022-09-15T10:20:32.475Z,99528.91
2022-09-15T10:23:14.744Z,99531.75
2022-09-15T10:25:59.207Z,99532.56
2022-09-15T10:28:30.950Z,99490.09
2022-09-15T10:31:04.219Z,99523.75
2022-09-15T10:33:36.076Z,99513.88
2022-09-15T10:36:08.817Z,99513.06
2022-09-15T10:38:48.958Z,99404.41
2022-09-15T10:41:31.665Z,99520.53
2022-09-15T10:44:30.972Z,99518.38
2022-09-15T10:47:15.578Z,99522.19
2022-09-15T10:50:07.306Z,99524.63
2022-09-15T10:52:57.466Z,99410.06
2022-09-15T10:55:53.041Z,99519.56
2022-09-15T10:58:56.885Z,99480.38
2022-09-15T11:02:00.431Z,99523.53
2022-09-15T11:04:52.860Z,99471.84
2022-09-15T11:07:34.849Z,99520.84
2022-09-15T11:10:21.132Z,99464.25
2022-09-15T11:13:05.504Z,99531.63
2022-09-15T11:16:00.701Z,99538.94
2022-09-15T11:18:56.384Z,99469.72
2022-09-15T11:21:34.041Z,99518.88
2022-09-15T11:24:29.877Z,99486.53
2022-09-15T11:27:06.871Z,99523.47
2022-09-15T11:29:59.527Z,99528.91
2022-09-15T11:32:38.116Z,99494.94
2022-09-15T11:35:35.638Z,99537.63
2022-09-15T11:38:31.405Z,99496.91
2022-09-15T11:41:15.552Z,99439.38
2022-09-15T11:44:00.532Z,99420.09
2022-09-15T11:46:43.492Z,99481.19
2022-09-15T11:49:21.712Z,99499.72
2022-09-15T11:52:02.516Z,99431.69
2022-09-15T11:54:49.827Z,99527.06
2022-09-15T11:57:26.729Z,99532.53
2022-09-15T12:00:03.907Z,99494.81
2022-09-15T12:02:45.385Z,99506.56
2022-09-15T12:05:20.958Z,99530.03
2022-09-15T12:07:57.209Z,99534.66
2022-09-15T12:10:30.639Z,99535.59
2022-09-15T12:13:02.700Z,99531.94
2022-09-15T12:15:32.823Z,99533.97
2022-09-15T12:18:37.380Z,99529.41
2022-09-15T12:21:14.202Z,99524.75
2022-09-15T12:23:49.855Z,99512.50
2022-09-15T12:26:21.072Z,99537.88
2022-09-15T12:28:58.598Z,99504.72
2022-09-15T12:31:39.495Z,99527.53
2022-09-15T12:34:38.528Z,99528.91
2022-09-15T12:37:15.740Z,99533.69
2022-09-15T12:39:46.121Z,99531.59
2022-09-15T12:42:22.299Z,99504.44
2022-09-15T12:44:58.381Z,99449.63
2022-09-15T12:47:34.040Z,99452.75
2022-09-15T12:50:25.850Z,99214.19
2022-09-15T12:53:02.258Z,99529.06
2022-09-15T12:55:34.888Z,99532.66
2022-09-15T12:58:09.850Z,99531.72
2022-09-15T13:00:49.974Z,99534.31
2022-09-15T13:04:26.540Z,99526.38
2022-09-15T13:07:34.740Z,99532.25
2022-09-15T13:10:30.971Z,99500.19
2022-09-15T13:13:32.672Z,99531.31
2022-09-15T13:16:07.135Z,99524.81
2022-09-15T13:18:36.265Z,99530.66
2022-09-15T13:21:14.046Z,99535.06
2022-09-15T13:23:52.361Z,99532.53
2022-09-15T13:26:28.234Z,99481.84
2022-09-15T13:29:04.690Z,99523.44
2022-09-15T13:31:48.376Z,99484.19
2022-09-15T13:35:07.982Z,99491.03
2022-09-15T13:38:37.194Z,99520.84
2022-09-15T13:41:46.629Z,99509.34
2022-09-15T13:45:00.286Z,99441.91
2022-09-15T13:47:43.801Z,99402.56
2022-09-15T13:50:22.610Z,99511.94
2022-09-15T13:53:21.844Z,99401.91
2022-09-15T13:55:51.958Z,99501.28
2022-09-15T14:01:15.769Z,99501.66
2022-09-15T14:03:50.256Z,99499.22
2022-09-15T14:06:37.504Z,99271.41
2022-09-15T14:09:17.122Z,99497.16
2022-09-15T14:11:51.768Z,99407.66
2022-09-15T14:14:39.529Z,99492.22
2022-09-15T14:17:24.424Z,99448.03
2022-09-15T14:19:56.812Z,99504.06
2022-09-15T14:22:33.879Z,99500.13
2022-09-15T14:25:08.946Z,99488.81
2022-09-15T14:27:44.402Z,99491.16
2022-09-15T14:30:22.882Z,99334.38
2022-09-15T14:33:00.866Z,99492.13
2022-09-15T14:35:45.365Z,99333.53
2022-09-15T14:38:27.812Z,99491.75
2022-09-15T14:41:01.848Z,99495.59
2022-09-15T14:43:35.996Z,99403.34
2022-09-15T14:46:21.114Z,99393.69
2022-09-15T14:48:54.086Z,99486.28
2022-09-15T14:51:26.131Z,99483.44
2022-09-15T14:54:00.756Z,99483.81
2022-09-15T14:56:35.665Z,99478.69
2022-09-15T14:59:12.196Z,99417.13
2022-09-15T15:01:48.021Z,99477.59
2022-09-15T15:04:25.834Z,99481.78
2022-09-15T15:06:59.799Z,99468.78
2022-09-15T15:09:39.801Z,99471.16
2022-09-15T15:12:27.162Z,99488.19
2022-09-15T15:15:00.395Z,99475.06
2022-09-15T15:17:35.157Z,99482.56
2022-09-15T15:20:18.555Z,99479.84
2022-09-15T15:22:52.852Z,99477.53
2022-09-15T15:25:33.216Z,99483.84
2022-09-15T15:28:08.045Z,99478.19
2022-09-15T15:30:48.579Z,99481.97
2022-09-15T15:33:25.325Z,99343.59
2022-09-15T15:36:11.878Z,99479.03
2022-09-15T15:38:53.192Z,99488.22
2022-09-15T15:41:33.222Z,99245.28
2022-09-15T15:44:29.013Z,99467.03
2022-09-15T15:47:00.007Z,99488.13
2022-09-15T15:49:31.873Z,99481.25
2022-09-15T15:52:02.700Z,99482.97
2022-09-15T15:54:36.701Z,99482.53
2022-09-15T15:57:24.200Z,99465.50
2022-09-15T15:59:58.554Z,99486.84
2022-09-15T16:02:28.834Z,99493.34
2022-09-15T16:04:57.760Z,99486.72
2022-09-15T16:07:31.119Z,99483.91
2022-09-15T16:10:04.460Z,99485.84
2022-09-15T16:12:35.465Z,99490.34
2022-09-15T16:15:12.483Z,99494.41
2022-09-15T16:17:45.991Z,99492.69
2022-09-15T16:20:17.860Z,99495.88
2022-09-15T16:22:47.297Z,99494.50
2022-09-15T16:25:19.653Z,99487.28
2022-09-15T16:27:48.731Z,99495.97
2022-09-15T16:30:19.108Z,99500.00
2022-09-15T16:32:48.065Z,99502.03
2022-09-15T16:35:30.575Z,99501.41
2022-09-15T16:38:00.171Z,99496.28
2022-09-15T16:40:29.144Z,99496.50
2022-09-15T16:42:58.852Z,99497.75
2022-09-15T16:45:40.613Z,99498.13
2022-09-15T16:48:10.345Z,99496.84
2022-09-15T16:51:26.663Z,99493.72
2022-09-15T16:53:33.178Z,99492.41
2022-09-15T16:56:02.649Z,99492.88
2022-09-15T16:58:32.250Z,99491.44
2022-09-15T17:01:03.620Z,99496.78
2022-09-15T17:03:32.686Z,99496.25
2022-09-15T17:06:02.989Z,99496.84
2022-09-15T17:08:34.278Z,99495.41
2022-09-15T17:11:06.976Z,99469.19
2022-09-15T17:13:36.396Z,99496.25
2022-09-15T17:16:07.620Z,99496.56
2022-09-15T17:18:36.774Z,99497.03
2022-09-15T17:21:05.978Z,99490.22
2022-09-15T17:23:39.400Z,99359.25
2022-09-15T17:26:13.024Z,99493.97
2022-09-15T17:28:42.477Z,99493.28
2022-09-15T17:31:17.784Z,99442.25
2022-09-15T17:33:48.180Z,99495.75
2022-09-15T17:36:18.280Z,99495.97
2022-09-15T17:38:49.103Z,99497.00
2022-09-15T17:41:20.518Z,99504.41
2022-09-15T17:43:52.734Z,99504.88
2022-09-15T17:46:23.286Z,99496.06
2022-09-15T17:48:52.571Z,99502.78
2022-09-15T17:51:21.739Z,99514.03
2022-09-15T17:53:50.737Z,99513.41
2022-09-15T17:56:19.714Z,99510.81
2022-09-15T17:58:48.804Z,99517.00
2022-09-15T18:01:18.007Z,99477.22
2022-09-15T18:03:48.828Z,99512.09
2022-09-15T18:06:17.979Z,99517.13
2022-09-15T18:08:47.227Z,99517.38
2022-09-15T18:11:16.491Z,99521.69
2022-09-15T18:13:45.469Z,99524.97
2022-09-15T18:16:16.099Z,99522.84
2022-09-15T18:18:45.287Z,99520.19
2022-09-15T18:21:25.866Z,99518.66
2022-09-15T18:23:54.925Z,99520.03
2022-09-15T18:26:26.205Z,99521.66
2022-09-15T18:28:56.081Z,99520.53
2022-09-15T18:31:25.119Z,99518.75
2022-09-15T18:33:58.312Z,99517.88
2022-09-15T18:36:30.014Z,99516.59
2022-09-15T18:39:01.108Z,99526.06
2022-09-15T18:41:30.316Z,99525.94
2022-09-15T18:43:59.193Z,99527.75
2022-09-15T18:46:28.151Z,99527.84
2022-09-15T18:48:57.396Z,99532.31
2022-09-15T18:51:34.911Z,99535.84
2022-09-15T18:54:16.591Z,99533.94
2022-09-15T18:56:45.516Z,99533.06
2022-09-15T18:59:17.552Z,99531.38
2022-09-15T19:01:46.928Z,99532.06
2022-09-15T19:04:15.883Z,99543.34
2022-09-15T19:06:46.707Z,99546.66
2022-09-15T19:09:15.660Z,99563.28
2022-09-15T19:11:44.506Z,99562.50
2022-09-15T19:14:13.569Z,99586.88
2022-09-15T19:16:57.203Z,99579.84
2022-09-15T19:19:27.549Z,99584.03
2022-09-15T19:21:57.899Z,99583.53
2022-09-15T19:24:32.201Z,99581.91
2022-09-15T19:27:01.644Z,99574.84
2022-09-15T19:29:34.783Z,99576.41
2022-09-15T19:32:25.246Z,99585.66
2022-09-15T19:34:54.540Z,99588.72
2022-09-15T19:37:26.719Z,99582.72
2022-09-15T19:39:56.174Z,99591.00
2022-09-15T19:42:25.220Z,99591.28
2022-09-15T19:44:54.363Z,99594.19
2022-09-15T19:47:23.455Z,99590.75
2022-09-15T19:49:53.298Z,99596.22
2022-09-15T19:52:23.792Z,99594.69
2022-09-15T19:54:52.848Z,99597.56
2022-09-15T19:57:22.759Z,99591.63
2022-09-15T19:59:52.015Z,99596.63
2022-09-15T20:02:21.113Z,99598.25
2022-09-15T20:04:50.582Z,99607.00
2022-09-15T20:07:19.644Z,99601.44
2022-09-15T20:09:52.906Z,99608.28
2022-09-15T20:12:22.128Z,99603.81
2022-09-15T20:14:51.114Z,99599.22
2022-09-15T20:17:20.126Z,99610.22
2022-09-15T20:19:49.310Z,99617.63
2022-09-15T20:22:18.164Z,99613.13
2022-09-15T20:24:48.675Z,99622.53
2022-09-15T20:27:17.739Z,99621.41
2022-09-15T20:29:46.690Z,99619.31
2022-09-15T20:32:15.728Z,99618.03
2022-09-15T20:34:44.669Z,99611.41
2022-09-15T20:37:13.515Z,99612.97
2022-09-15T20:39:42.720Z,99612.91
2022-09-15T20:42:13.126Z,99612.75
2022-09-15T20:44:42.078Z,99607.28
2022-09-15T20:47:10.998Z,99601.97
2022-09-15T20:49:40.172Z,99609.63
2022-09-15T20:52:09.188Z,99607.78
2022-09-15T20:54:38.098Z,99602.31
2022-09-15T20:57:07.355Z,99529.13
2022-09-15T20:59:38.084Z,99607.56
2022-09-15T21:02:07.706Z,99611.16
2022-09-15T21:04:36.804Z,99607.56
2022-09-15T21:07:06.070Z,99608.41
2022-09-15T21:09:34.930Z,99612.69
2022-09-15T21:12:04.126Z,99611.84
2022-09-15T21:14:33.157Z,99608.31
2022-09-15T21:17:03.321Z,99604.78
2022-09-15T21:19:32.604Z,99608.41
2022-09-15T21:22:01.790Z,99610.97
2022-09-15T21:24:30.693Z,99608.31
2022-09-15T21:27:16.712Z,99602.53
2022-09-15T21:29:45.437Z,99611.22
2022-09-15T21:32:16.768Z,99609.75
2022-09-15T21:34:47.328Z,99605.16
2022-09-15T21:37:16.466Z,99617.53
2022-09-15T21:39:45.370Z,99616.59
2022-09-15T21:42:14.330Z,99616.22
2022-09-15T21:44:43.382Z,99614.31
2022-09-15T21:47:12.330Z,99612.31
2022-09-15T21:49:42.733Z,99612.16
2022-09-15T21:52:12.251Z,99544.81
2022-09-15T21:54:41.176Z,99614.31
2022-09-15T21:57:10.270Z,99622.84
2022-09-15T21:59:39.285Z,99619.13
2022-09-15T22:02:08.222Z,99620.06
2022-09-15T22:04:38.349Z,99622.94
2022-09-15T22:07:09.805Z,99627.59
2022-09-15T22:09:39.745Z,99627.25
2022-09-15T22:12:09.027Z,99629.75
2022-09-15T22:14:38.338Z,99625.13
2022-09-15T22:17:07.426Z,99628.41
2022-09-15T22:19:38.547Z,99630.56
2022-09-15T22:22:09.270Z,99641.50
2022-09-15T22:24:38.501Z,99639.13
2022-09-15T22:27:07.563Z,99637.53
2022-09-15T22:29:39.727Z,99632.22
2022-09-15T22:32:08.651Z,99631.91
2022-09-15T22:34:37.666Z,99642.16
2022-09-15T22:37:08.088Z,99642.00
2022-09-15T22:39:58.081Z,99640.97
2022-09-15T22:42:27.294Z,99645.06
2022-09-15T22:44:56.236Z,99645.72
2022-09-15T22:47:25.183Z,99641.97
2022-09-15T22:49:54.351Z,99648.09
2022-09-15T22:52:24.632Z,99648.97
2022-09-15T22:54:53.729Z,99646.38
2022-09-15T22:57:22.562Z,99642.03
2022-09-15T22:59:51.461Z,99635.59
2022-09-15T23:02:20.492Z,99640.66
2022-09-15T23:04:49.640Z,99638.81
2022-09-15T23:07:18.526Z,99646.72
2022-09-15T23:09:49.494Z,99653.53
2022-09-15T23:12:18.523Z,99652.31
2022-09-15T23:14:47.424Z,99649.28
2022-09-15T23:17:16.360Z,99655.84
2022-09-15T23:19:45.650Z,99649.91
2022-09-15T23:22:14.620Z,99652.44
2022-09-15T23:24:43.731Z,99661.22
2022-09-15T23:27:14.067Z,99666.22
2022-09-15T23:29:43.159Z,99660.91
2022-09-15T23:32:12.044Z,99657.38
2022-09-15T23:34:40.996Z,99656.31
2022-09-15T23:37:09.936Z,99646.75
2022-09-15T23:39:38.846Z,99654.78
2022-09-15T23:42:07.975Z,99661.22
2022-09-15T23:44:38.255Z,99656.88
2022-09-15T23:47:07.673Z,99649.22
2022-09-15T23:49:36.636Z,99656.47
2022-09-15T23:52:05.608Z,99661.09
2022-09-15T23:54:34.519Z,99664.16
2022-09-15T23:57:03.415Z,99667.25
2022-09-15T23:59:32.403Z,99659.41
